Attica, IN

1:06 PM EST on February 10, 2016 (GMT -0500)
Warren County, IN | | Change Station
CLOSE
Current Station
Personal Weather Station
Location: Attica, IN
Elevation: 615 ft
Nearby Weather Stations

Elev 615 ft 40.35 °N, 87.21 °W | Updated 1 minute ago

Mostly Cloudy
Mostly Cloudy
15.2 °F
Feels Like 9 °F
N
4.0
Wind Variable Wind from West
Gusts 8.0 mph

Today
High -- | Low -- °F
--% Chance of Precip.
Yesterday
High -- | Low -- °F
Precip. -- in
Pressure 30.09 in
Visibility 9.0 miles
Clouds Overcast 2500 ft
Windchill 9 °F
Dew Point 8 °F
Humidity 73%
Rainfall 0.00 in
Snow Depth Not available.
7:48 AM 6:17 PM
Waxing Crescent, 6% visible
METAR KLAF 101754Z 28010KT 9SM OVC025 M10/M15 A3006 RMK AO2 SNB36E48 SLP189 P0000 60000 T11001150 11089 21133 50003
Pressure 30.09 in
Visibility 9.0 miles
Clouds Overcast 2500 ft
Windchill 9 °F
Dew Point 8 °F
Humidity 73%
Rainfall 0.00 in
Snow Depth Not available.
7:48 AM 6:17 PM
Waxing Crescent, 6% visible
METAR KLAF 101754Z 28010KT 9SM OVC025 M10/M15 A3006 RMK AO2 SNB36E48 SLP189 P0000 60000 T11001150 11089 21133 50003

10-Day Weather Forecast

Almanac

Astronomy

Feb. 10, 2016 Rise Set
Actual Time
Civil Twilight
Nautical Twilight
Astronomical Twilight
Moon
Length of Visible Light
Length of Day
Tomorrow will be .
, % of the Moon is Illuminated

Today's Extremes

State Highs State Lows

Community

WunderPhotos

Upload Photos

1,891,904 photos uploaded!

WunderBlog® & News

Nearby

Air Quality

  Air Quality AQ Index Pollutant
Not available.

Snow Depth

Station Depth Elevation

Earthquake Activity

City Distance Mag. Time & Date
Minimum magnitude displayed is 2.5.

Coastal Water Temperatures

Place Temperature

Stations

Nearby Weather Stations

Station Location Temp. Windchill Dew Point Humidity Wind Precip. Elev Updated Type
                   

Watches & Warnings

There are currently no watches in effect.